createdAt,value
2023-03-05T00:01:27.524Z,4.55
2023-03-05T00:03:56.844Z,6.43
2023-03-05T00:06:27.753Z,6.00
2023-03-05T00:08:56.841Z,4.53
2023-03-05T00:11:28.022Z,7.45
2023-03-05T00:13:56.887Z,9.13
2023-03-05T00:16:26.797Z,9.55
2023-03-05T00:18:55.638Z,4.82
2023-03-05T00:21:26.657Z,5.30
2023-03-05T00:23:55.522Z,7.10
2023-03-05T00:26:25.134Z,9.40
2023-03-05T00:28:53.327Z,7.32
2023-03-05T00:31:23.584Z,9.35
2023-03-05T00:33:53.029Z,6.38
2023-03-05T00:36:21.119Z,6.28
2023-03-05T00:38:50.484Z,7.28
2023-03-05T00:41:18.480Z,11.60
2023-03-05T00:43:46.868Z,6.38
2023-03-05T00:46:15.059Z,6.47
2023-03-05T00:48:43.020Z,8.45
2023-03-05T00:51:11.444Z,9.50
2023-03-05T00:53:39.688Z,7.93
2023-03-05T00:56:09.315Z,9.35
2023-03-05T00:58:37.408Z,8.13
2023-03-05T01:01:05.977Z,8.68
2023-03-05T01:03:35.391Z,7.43
2023-03-05T01:06:05.821Z,7.68
2023-03-05T01:08:35.486Z,7.50
2023-03-05T01:11:03.643Z,8.60
2023-03-05T01:13:33.430Z,8.68
2023-03-05T01:16:01.755Z,8.43
2023-03-05T01:18:29.830Z,7.55
2023-03-05T01:20:57.974Z,6.80
2023-03-05T01:23:25.893Z,5.07
2023-03-05T01:25:57.646Z,6.53
2023-03-05T01:28:25.870Z,6.72
2023-03-05T01:30:55.470Z,9.05
2023-03-05T01:33:23.729Z,7.57
2023-03-05T01:35:52.078Z,6.45
2023-03-05T01:38:20.153Z,8.50
2023-03-05T01:40:48.284Z,7.97
2023-03-05T01:43:27.641Z,9.68
2023-03-05T01:46:35.937Z,7.55
2023-03-05T01:49:12.198Z,9.20
2023-03-05T01:51:44.280Z,10.10
2023-03-05T01:54:13.315Z,9.73
2023-03-05T01:56:41.821Z,6.38
2023-03-05T01:59:10.169Z,6.85
2023-03-05T02:01:40.965Z,9.18
2023-03-05T02:04:11.544Z,6.75
2023-03-05T02:06:42.485Z,6.07
2023-03-05T02:09:10.922Z,10.32
2023-03-05T02:11:39.235Z,6.80
2023-03-05T02:14:10.032Z,7.57
2023-03-05T02:16:39.616Z,6.32
2023-03-05T02:19:12.258Z,11.68
2023-03-05T02:21:43.080Z,9.45
2023-03-05T02:24:15.270Z,6.18
2023-03-05T02:26:44.839Z,9.85
2023-03-05T02:29:16.326Z,8.48
2023-03-05T02:31:44.479Z,12.63
2023-03-05T02:34:12.536Z,13.63
2023-03-05T02:36:42.009Z,8.25
2023-03-05T02:39:10.704Z,7.50
2023-03-05T02:41:38.747Z,10.32
2023-03-05T02:44:06.638Z,18.63
2023-03-05T02:46:34.941Z,7.90
2023-03-05T02:49:02.951Z,11.82
2023-03-05T02:51:30.962Z,9.88
2023-03-05T02:54:00.300Z,12.48
2023-03-05T02:56:28.342Z,13.10
2023-03-05T02:58:56.470Z,12.45
2023-03-05T03:01:24.427Z,9.60
2023-03-05T03:03:52.533Z,8.35
2023-03-05T03:06:20.461Z,9.45
2023-03-05T03:08:48.474Z,8.57
2023-03-05T03:11:18.799Z,7.22
2023-03-05T03:13:46.865Z,9.13
2023-03-05T03:16:16.429Z,8.65
2023-03-05T03:18:47.477Z,9.82
2023-03-05T03:21:20.761Z,10.70
2023-03-05T03:23:48.753Z,12.88
2023-03-05T03:26:18.557Z,10.15
2023-03-05T03:28:46.642Z,7.72
2023-03-05T03:31:14.762Z,8.57
2023-03-05T03:33:42.764Z,12.48
2023-03-05T03:36:13.266Z,11.10
2023-03-05T03:38:41.261Z,9.00
2023-03-05T03:41:09.914Z,12.13
2023-03-05T03:43:39.302Z,10.82
2023-03-05T03:46:08.112Z,9.98
2023-03-05T03:48:36.973Z,12.95
2023-03-05T03:51:08.955Z,8.95
2023-03-05T03:53:37.046Z,14.93
2023-03-05T03:56:05.634Z,9.77
2023-03-05T03:58:33.916Z,10.77
2023-03-05T04:01:03.440Z,11.45
2023-03-05T04:03:33.962Z,11.07
2023-03-05T04:06:02.246Z,14.77
2023-03-05T04:08:30.078Z,16.88
2023-03-05T04:10:58.094Z,18.23
2023-03-05T04:13:26.184Z,14.95
2023-03-05T04:15:54.518Z,16.77
2023-03-05T04:18:24.029Z,12.35
2023-03-05T04:20:52.072Z,18.73
2023-03-05T04:23:20.145Z,15.27
2023-03-05T04:25:48.290Z,16.27
2023-03-05T04:28:17.703Z,21.58
2023-03-05T04:30:45.818Z,18.00
2023-03-05T04:33:13.769Z,19.17
2023-03-05T04:35:43.466Z,22.07
2023-03-05T04:38:11.640Z,16.65
2023-03-05T04:40:39.861Z,16.30
2023-03-05T04:43:08.248Z,20.20
2023-03-05T04:45:37.085Z,17.75
2023-03-05T04:48:05.486Z,17.48
2023-03-05T04:50:33.377Z,18.85
2023-03-05T04:53:03.002Z,17.45
2023-03-05T04:55:31.199Z,22.90
2023-03-05T04:57:59.521Z,18.13
2023-03-05T05:00:27.554Z,17.23
2023-03-05T05:02:55.665Z,18.75
2023-03-05T05:05:25.894Z,16.50
2023-03-05T05:07:56.200Z,15.85
2023-03-05T05:10:26.177Z,17.13
2023-03-05T05:12:54.246Z,17.42
2023-03-05T05:15:22.609Z,22.60
2023-03-05T05:17:50.623Z,20.23
2023-03-05T05:20:18.940Z,23.73
2023-03-05T05:22:46.996Z,15.45
2023-03-05T05:25:14.963Z,16.15
2023-03-05T05:27:44.361Z,16.98
2023-03-05T05:30:13.443Z,17.95
2023-03-05T05:32:41.498Z,18.15
2023-03-05T05:35:11.015Z,18.13
2023-03-05T05:37:39.020Z,16.73
2023-03-05T05:40:08.615Z,16.77
2023-03-05T05:42:37.011Z,16.10
2023-03-05T05:45:07.517Z,14.88
2023-03-05T05:47:35.593Z,16.83
2023-03-05T05:50:03.739Z,17.27
2023-03-05T05:52:32.132Z,17.35
2023-03-05T05:55:00.142Z,18.38
2023-03-05T05:57:28.046Z,13.27
2023-03-05T05:59:56.152Z,17.20
2023-03-05T06:02:27.705Z,15.57
2023-03-05T06:04:58.068Z,14.80
2023-03-05T06:07:26.237Z,14.32
2023-03-05T06:09:54.233Z,13.77
2023-03-05T06:12:22.235Z,16.33
2023-03-05T06:14:50.112Z,15.55
2023-03-05T06:17:28.574Z,14.20
2023-03-05T06:19:59.567Z,13.30
2023-03-05T06:22:27.692Z,12.00
2023-03-05T06:24:55.860Z,16.35
2023-03-05T06:27:24.165Z,14.50
2023-03-05T06:29:54.268Z,14.38
2023-03-05T06:32:22.354Z,18.85
2023-03-05T06:34:50.538Z,15.32
2023-03-05T06:37:20.099Z,13.00
2023-03-05T06:39:48.320Z,13.10
2023-03-05T06:42:17.719Z,14.25
2023-03-05T06:44:47.289Z,15.32
2023-03-05T06:47:16.268Z,14.07
2023-03-05T06:49:44.471Z,13.77
2023-03-05T06:52:12.875Z,12.15
2023-03-05T06:54:42.297Z,13.88
2023-03-05T06:57:11.103Z,15.50
2023-03-05T06:59:39.060Z,12.52
2023-03-05T07:02:07.438Z,14.90
2023-03-05T07:04:35.436Z,13.75
2023-03-05T07:07:03.390Z,14.55
2023-03-05T07:09:31.777Z,12.15
2023-03-05T07:12:01.101Z,13.98
2023-03-05T07:14:29.065Z,14.38
2023-03-05T07:16:57.086Z,14.60
2023-03-05T07:19:25.114Z,10.10
2023-03-05T07:21:53.047Z,12.70
2023-03-05T07:24:21.229Z,14.02
2023-03-05T07:26:49.216Z,16.50
2023-03-05T07:29:18.821Z,11.85
2023-03-05T07:31:47.045Z,12.63
2023-03-05T07:34:15.163Z,10.75
2023-03-05T07:36:43.341Z,9.65
2023-03-05T07:39:13.018Z,11.85
2023-03-05T07:41:41.172Z,10.63
2023-03-05T07:44:09.396Z,8.85
2023-03-05T07:46:38.816Z,10.15
2023-03-05T07:49:06.836Z,11.32
2023-03-05T07:51:34.930Z,7.82
2023-03-05T07:54:03.265Z,8.02
2023-03-05T07:56:32.703Z,8.43
2023-03-05T07:59:01.851Z,12.85
2023-03-05T08:01:30.443Z,15.70
2023-03-05T08:03:59.906Z,10.85
2023-03-05T08:06:28.267Z,13.98
2023-03-05T08:08:56.767Z,9.30
2023-03-05T08:11:24.895Z,14.00
2023-03-05T08:13:52.871Z,8.48
2023-03-05T08:16:22.288Z,9.57
2023-03-05T08:18:50.687Z,10.40
2023-03-05T08:21:22.446Z,10.25
2023-03-05T08:23:50.791Z,10.40
2023-03-05T08:26:21.643Z,10.10
2023-03-05T08:28:50.455Z,10.05
2023-03-05T08:31:21.294Z,9.13
2023-03-05T08:33:49.685Z,8.15
2023-03-05T08:36:18.000Z,8.07
2023-03-05T08:38:50.657Z,9.63
2023-03-05T08:41:20.030Z,11.23
2023-03-05T08:43:48.102Z,7.05
2023-03-05T08:46:17.459Z,8.82
2023-03-05T08:48:45.834Z,6.95
2023-03-05T08:51:15.650Z,6.68
2023-03-05T08:53:44.701Z,6.38
2023-03-05T08:56:14.812Z,6.95
2023-03-05T08:58:43.273Z,9.90
2023-03-05T09:01:11.541Z,7.57
2023-03-05T09:03:40.050Z,6.10
2023-03-05T09:06:10.892Z,6.03
2023-03-05T09:08:42.922Z,5.68
2023-03-05T09:11:15.167Z,5.60
2023-03-05T09:13:43.188Z,7.88
2023-03-05T09:16:13.636Z,5.72
2023-03-05T09:18:41.760Z,7.32
2023-03-05T09:21:12.451Z,5.28
2023-03-05T09:23:41.246Z,5.30
2023-03-05T09:26:13.260Z,4.93
2023-03-05T09:28:43.040Z,4.35
2023-03-05T09:31:11.502Z,3.92
2023-03-05T09:33:39.927Z,3.63
2023-03-05T09:36:19.164Z,4.80
2023-03-05T09:38:47.154Z,5.05
2023-03-05T09:41:18.795Z,4.15
2023-03-05T09:43:56.485Z,2.50
2023-03-05T09:46:36.487Z,2.75
2023-03-05T09:49:15.227Z,2.08
2023-03-05T09:51:46.515Z,2.15
2023-03-05T09:54:18.428Z,3.22
2023-03-05T09:56:48.870Z,2.35
2023-03-05T09:59:29.107Z,3.42
2023-03-05T10:01:59.283Z,4.10
2023-03-05T10:04:30.325Z,3.22
2023-03-05T10:07:02.802Z,1.80
2023-03-05T10:09:44.300Z,2.70
2023-03-05T10:12:17.730Z,1.65
2023-03-05T10:14:47.239Z,3.15
2023-03-05T10:17:51.611Z,2.40
2023-03-05T10:20:44.445Z,3.22
2023-03-05T10:23:25.643Z,2.50
2023-03-05T10:26:02.301Z,5.97
2023-03-05T10:28:40.369Z,4.00
2023-03-05T10:31:25.235Z,2.30
2023-03-05T10:34:00.579Z,8.57
2023-03-05T10:36:46.863Z,3.80
2023-03-05T10:39:34.892Z,5.15
2023-03-05T10:42:10.476Z,5.90
2023-03-05T10:44:42.616Z,5.30
2023-03-05T10:47:18.050Z,4.75
2023-03-05T10:49:51.314Z,4.25
2023-03-05T10:52:22.192Z,6.43
2023-03-05T10:54:51.612Z,6.63
2023-03-05T10:57:22.048Z,4.95
2023-03-05T10:59:51.665Z,6.35
2023-03-05T11:02:22.500Z,4.70
2023-03-05T11:04:51.801Z,4.30
2023-03-05T11:07:37.353Z,5.55
2023-03-05T11:10:21.315Z,5.18
2023-03-05T11:12:49.602Z,5.82
2023-03-05T11:15:30.244Z,5.90
2023-03-05T11:18:24.250Z,9.52
2023-03-05T11:20:53.105Z,7.32
2023-03-05T11:23:23.578Z,8.55
2023-03-05T11:25:54.726Z,6.15
2023-03-05T11:28:32.885Z,7.65
2023-03-05T11:31:04.766Z,6.68
2023-03-05T11:33:34.862Z,5.50
2023-03-05T11:36:24.770Z,6.82
2023-03-05T11:38:56.337Z,7.78
2023-03-05T11:41:35.921Z,7.82
2023-03-05T11:44:07.395Z,4.72
2023-03-05T11:46:40.200Z,5.30
2023-03-05T11:49:13.967Z,4.88
2023-03-05T11:51:43.803Z,4.47
2023-03-05T11:54:17.585Z,5.50
2023-03-05T11:56:46.987Z,6.43
2023-03-05T11:59:18.282Z,4.45
2023-03-05T12:01:48.692Z,4.75
2023-03-05T12:04:20.954Z,4.07
2023-03-05T12:06:50.927Z,4.28
2023-03-05T12:09:24.033Z,6.10
2023-03-05T12:11:55.126Z,5.07
2023-03-05T12:14:26.133Z,4.78
2023-03-05T12:16:58.479Z,6.57
2023-03-05T12:19:38.863Z,2.00
2023-03-05T12:22:17.305Z,0.88
2023-03-05T12:24:45.199Z,1.17
2023-03-05T12:27:15.967Z,0.75
2023-03-05T12:29:46.829Z,0.50
2023-03-05T12:33:03.344Z,0.70
2023-03-05T12:35:36.993Z,1.88
2023-03-05T12:38:34.490Z,2.58
2023-03-05T12:41:45.152Z,1.27
2023-03-05T12:44:21.055Z,1.63
2023-03-05T12:47:23.755Z,2.10
2023-03-05T12:49:51.892Z,0.77
2023-03-05T12:52:27.416Z,1.35
2023-03-05T12:55:03.799Z,2.90
2023-03-05T12:57:32.603Z,1.27
2023-03-05T13:00:06.173Z,1.30
2023-03-05T13:02:37.194Z,0.90
2023-03-05T13:05:09.536Z,1.20
2023-03-05T13:07:38.838Z,0.50
2023-03-05T13:10:07.737Z,1.23
2023-03-05T13:12:36.851Z,1.40
2023-03-05T13:15:06.052Z,0.70
2023-03-05T13:17:38.227Z,1.50
2023-03-05T13:20:25.943Z,0.93
2023-03-05T13:23:20.622Z,0.50
2023-03-05T13:26:10.258Z,0.82
2023-03-05T13:28:39.367Z,0.80
2023-03-05T13:31:15.028Z,0.50
2023-03-05T13:33:53.136Z,1.27
2023-03-05T13:36:22.202Z,0.73
2023-03-05T13:38:51.709Z,0.77
2023-03-05T13:41:23.826Z,0.95
2023-03-05T13:43:52.938Z,1.75
2023-03-05T13:46:29.040Z,1.23
2023-03-05T13:48:57.218Z,1.00
2023-03-05T13:51:25.752Z,1.20
2023-03-05T13:53:55.177Z,0.60
2023-03-05T13:56:23.043Z,1.05
2023-03-05T13:58:53.373Z,0.93
2023-03-05T14:01:30.154Z,0.75
2023-03-05T14:04:00.808Z,0.85
2023-03-05T14:06:30.820Z,0.93
2023-03-05T14:09:06.229Z,0.98
2023-03-05T14:11:34.854Z,2.13
2023-03-05T14:14:19.046Z,1.08
2023-03-05T14:16:47.227Z,2.58
2023-03-05T14:19:34.732Z,0.70
2023-03-05T14:22:03.029Z,0.80
2023-03-05T14:24:32.393Z,1.35
2023-03-05T14:27:03.377Z,1.63
2023-03-05T14:29:31.355Z,1.00
2023-03-05T14:32:00.839Z,0.95
2023-03-05T14:34:31.190Z,1.15
2023-03-05T14:37:03.051Z,1.00
2023-03-05T14:39:38.002Z,1.60
2023-03-05T14:42:33.337Z,4.47
2023-03-05T14:45:02.719Z,2.38
2023-03-05T14:47:30.676Z,3.63
2023-03-05T14:49:58.587Z,2.80
2023-03-05T14:52:26.934Z,1.80
2023-03-05T14:54:56.260Z,1.90
2023-03-05T14:57:26.400Z,3.47
2023-03-05T14:59:55.578Z,4.10
2023-03-05T15:02:24.968Z,3.72
2023-03-05T15:04:53.358Z,3.20
2023-03-05T15:07:24.421Z,2.08
2023-03-05T15:09:52.369Z,3.58
2023-03-05T15:12:24.682Z,3.50
2023-03-05T15:14:52.895Z,3.03
2023-03-05T15:17:22.794Z,4.28
2023-03-05T15:19:51.092Z,3.53
2023-03-05T15:22:19.216Z,4.30
2023-03-05T15:24:47.092Z,2.85
2023-03-05T15:27:15.247Z,5.47
2023-03-05T15:29:44.488Z,2.85
2023-03-05T15:32:12.553Z,4.15
2023-03-05T15:34:40.433Z,3.78
2023-03-05T15:37:08.715Z,5.57
2023-03-05T15:39:36.654Z,2.97
2023-03-05T15:42:06.373Z,3.03
2023-03-05T15:44:34.470Z,1.75
2023-03-05T15:47:03.757Z,4.60
2023-03-05T15:49:31.625Z,5.03
2023-03-05T15:51:59.565Z,3.42
2023-03-05T15:54:27.740Z,4.63
2023-03-05T15:56:55.741Z,3.42
2023-03-05T15:59:23.645Z,3.47
2023-03-05T16:01:52.616Z,3.42
2023-03-05T16:04:21.915Z,3.00
2023-03-05T16:06:50.627Z,4.82
2023-03-05T16:09:22.073Z,3.50
2023-03-05T16:11:51.489Z,6.28
2023-03-05T16:14:23.342Z,5.85
2023-03-05T16:16:51.683Z,6.05
2023-03-05T16:19:21.386Z,4.15
2023-03-05T16:21:49.411Z,3.60
2023-03-05T16:24:17.484Z,3.60
2023-03-05T16:26:45.364Z,4.78
2023-03-05T16:29:13.471Z,6.60
2023-03-05T16:31:43.199Z,5.53
2023-03-05T16:34:14.060Z,5.15
2023-03-05T16:36:48.115Z,3.78
2023-03-05T16:39:16.044Z,9.00
2023-03-05T16:41:43.991Z,6.25
2023-03-05T16:44:12.077Z,4.63
2023-03-05T16:46:41.445Z,4.70
2023-03-05T16:49:10.060Z,7.68
2023-03-05T16:51:38.049Z,4.88
2023-03-05T16:54:09.676Z,6.35
2023-03-05T16:56:38.488Z,7.18
2023-03-05T16:59:06.529Z,7.47
2023-03-05T17:01:34.496Z,9.02
2023-03-05T17:04:02.570Z,11.32
2023-03-05T17:06:32.133Z,5.00
2023-03-05T17:09:00.436Z,7.00
2023-03-05T17:11:29.845Z,8.30
2023-03-05T17:13:57.789Z,8.95
2023-03-05T17:16:25.827Z,7.43
2023-03-05T17:18:53.692Z,8.65
2023-03-05T17:21:21.676Z,10.38
2023-03-05T17:23:49.682Z,10.27
2023-03-05T17:26:19.176Z,8.10
2023-03-05T17:28:48.637Z,8.95
2023-03-05T17:31:16.671Z,7.53
2023-03-05T17:33:44.746Z,8.93
2023-03-05T17:36:17.351Z,5.25
2023-03-05T17:38:48.692Z,9.05
2023-03-05T17:41:18.223Z,7.57
2023-03-05T17:43:46.213Z,7.35
2023-03-05T17:46:16.804Z,7.78
2023-03-05T17:48:44.901Z,5.63
2023-03-05T17:51:14.377Z,7.65
2023-03-05T17:53:42.393Z,9.90
2023-03-05T17:56:11.454Z,7.22
2023-03-05T17:58:39.682Z,8.68
2023-03-05T18:01:08.446Z,7.93
2023-03-05T18:03:38.150Z,8.43
2023-03-05T18:06:06.652Z,7.70
2023-03-05T18:08:34.550Z,7.78
2023-03-05T18:11:02.500Z,9.88
2023-03-05T18:13:30.383Z,9.27
2023-03-05T18:15:59.436Z,9.27
2023-03-05T18:18:27.618Z,17.55
2023-03-05T18:20:57.181Z,12.00
2023-03-05T18:23:25.117Z,10.90
2023-03-05T18:25:53.083Z,11.98
2023-03-05T18:28:21.106Z,13.20
2023-03-05T18:30:48.986Z,10.93
2023-03-05T18:33:19.662Z,12.30
2023-03-05T18:35:52.404Z,10.80
2023-03-05T18:38:22.243Z,10.73
2023-03-05T18:40:51.289Z,9.27
2023-03-05T18:43:20.530Z,11.18
2023-03-05T18:45:48.977Z,11.27
2023-03-05T18:48:19.541Z,11.38
2023-03-05T18:50:48.180Z,10.35
2023-03-05T18:53:16.283Z,9.55
2023-03-05T18:55:45.633Z,11.05
2023-03-05T18:58:15.533Z,12.60
2023-03-05T19:00:44.904Z,15.55
2023-03-05T19:03:12.985Z,14.23
2023-03-05T19:05:41.683Z,19.45
2023-03-05T19:08:09.830Z,16.48
2023-03-05T19:10:37.981Z,17.50
2023-03-05T19:13:43.448Z,16.20
2023-03-05T19:16:13.722Z,14.85
2023-03-05T19:19:20.065Z,17.30
2023-03-05T19:21:49.596Z,19.05
2023-03-05T19:24:18.302Z,13.68
2023-03-05T19:26:46.521Z,18.00
2023-03-05T19:29:16.243Z,12.95
2023-03-05T19:31:44.179Z,15.35
2023-03-05T19:34:12.213Z,15.07
2023-03-05T19:36:40.216Z,15.93
2023-03-05T19:39:09.125Z,16.70
2023-03-05T19:41:37.802Z,13.32
2023-03-05T19:44:06.250Z,13.30
2023-03-05T19:46:35.590Z,15.80
2023-03-05T19:49:03.519Z,15.88
2023-03-05T19:51:31.388Z,14.70
2023-03-05T19:53:59.272Z,16.90
2023-03-05T19:56:27.502Z,15.35
2023-03-05T19:58:55.496Z,15.93
2023-03-05T20:01:25.957Z,11.70
2023-03-05T20:03:56.640Z,14.90
2023-03-05T20:06:28.831Z,14.93
2023-03-05T20:08:57.019Z,13.85
2023-03-05T20:11:25.835Z,16.70
2023-03-05T20:13:53.970Z,15.32
2023-03-05T20:16:23.587Z,14.88
2023-03-05T20:18:54.677Z,14.75
2023-03-05T20:21:25.755Z,15.52
2023-03-05T20:23:55.446Z,13.75
2023-03-05T20:26:24.650Z,14.57
2023-03-05T20:28:53.606Z,13.55
2023-03-05T20:31:22.611Z,13.68
2023-03-05T20:33:50.577Z,15.48
2023-03-05T20:36:18.763Z,15.00
2023-03-05T20:38:48.005Z,18.65
2023-03-05T20:41:18.491Z,21.58
2023-03-05T20:43:47.960Z,15.98
2023-03-05T20:46:17.671Z,20.50
2023-03-05T20:48:47.988Z,22.08
2023-03-05T20:51:18.644Z,20.23
2023-03-05T20:53:50.502Z,20.23
2023-03-05T20:56:18.554Z,21.45
2023-03-05T20:58:46.498Z,21.88
2023-03-05T21:01:14.410Z,23.77
2023-03-05T21:03:44.148Z,23.42
2023-03-05T21:06:12.068Z,22.17
2023-03-05T21:08:40.360Z,21.15
2023-03-05T21:11:10.605Z,24.67
2023-03-05T21:13:55.391Z,21.53
2023-03-05T21:16:28.115Z,27.55
2023-03-05T21:18:57.294Z,21.45
2023-03-05T21:21:25.634Z,22.85
2023-03-05T21:23:53.593Z,24.50
2023-03-05T21:26:22.996Z,25.23
2023-03-05T21:28:50.883Z,26.38
2023-03-05T21:31:21.140Z,25.27
2023-03-05T21:33:49.435Z,24.83
2023-03-05T21:36:18.798Z,26.58
2023-03-05T21:38:47.319Z,25.42
2023-03-05T21:41:15.678Z,24.00
2023-03-05T21:43:45.018Z,25.17
2023-03-05T21:46:13.105Z,23.80
2023-03-05T21:48:41.104Z,25.70
2023-03-05T21:52:09.334Z,26.85
2023-03-05T21:54:37.571Z,27.13
2023-03-05T21:57:06.688Z,26.65
2023-03-05T21:59:36.059Z,25.48
2023-03-05T22:02:03.931Z,23.65
2023-03-05T22:04:31.794Z,25.33
2023-03-05T22:06:59.682Z,26.83
2023-03-05T22:09:27.546Z,22.65
2023-03-05T22:11:56.990Z,23.80
2023-03-05T22:14:24.998Z,29.65
2023-03-05T22:16:56.971Z,26.47
2023-03-05T22:19:24.966Z,25.95
2023-03-05T22:21:52.865Z,27.65
2023-03-05T22:24:21.803Z,32.83
2023-03-05T22:26:49.724Z,25.88
2023-03-05T22:29:19.868Z,30.48
2023-03-05T22:31:47.776Z,26.95
2023-03-05T22:34:18.487Z,28.27
2023-03-05T22:36:46.421Z,32.08
2023-03-05T22:39:14.294Z,28.10
2023-03-05T22:41:42.474Z,31.63
2023-03-05T22:44:10.378Z,29.23
2023-03-05T22:46:38.343Z,27.33
2023-03-05T22:49:06.290Z,26.63
2023-03-05T22:51:35.538Z,26.38
2023-03-05T22:54:03.503Z,29.20
2023-03-05T22:56:31.443Z,26.40
2023-03-05T22:58:59.324Z,30.42
2023-03-05T23:01:27.910Z,28.73
2023-03-05T23:04:50.008Z,28.23
2023-03-05T23:07:20.797Z,24.35
2023-03-05T23:09:52.573Z,25.98
2023-03-05T23:12:20.789Z,31.38
2023-03-05T23:14:48.648Z,28.98
2023-03-05T23:17:16.614Z,28.65
2023-03-05T23:19:44.559Z,28.73
2023-03-05T23:22:14.173Z,30.27
2023-03-05T23:24:43.445Z,27.77
2023-03-05T23:27:12.905Z,28.23
2023-03-05T23:30:19.554Z,29.45
2023-03-05T23:32:50.650Z,30.55
2023-03-05T23:35:20.503Z,30.98
2023-03-05T23:37:48.694Z,30.65
2023-03-05T23:40:20.873Z,29.60
2023-03-05T23:42:48.825Z,26.05
2023-03-05T23:45:18.351Z,26.98
2023-03-05T23:47:49.252Z,32.15
2023-03-05T23:50:19.501Z,29.15
2023-03-05T23:52:47.704Z,28.48
2023-03-05T23:55:19.542Z,29.48
2023-03-05T23:57:48.151Z,31.10
